createdAt,value
2023-03-21T00:00:31.150Z,0.00
2023-03-21T00:01:31.012Z,0.00
2023-03-21T00:02:31.121Z,0.00
2023-03-21T00:03:31.245Z,0.00
2023-03-21T00:04:40.944Z,0.00
2023-03-21T00:05:31.109Z,0.00
2023-03-21T00:06:31.232Z,0.00
2023-03-21T00:07:30.944Z,0.00
2023-03-21T00:08:31.244Z,0.00
2023-03-21T00:09:30.933Z,0.00
2023-03-21T00:10:40.088Z,0.00
2023-03-21T00:11:30.928Z,0.00
2023-03-21T00:12:31.141Z,0.00
2023-03-21T00:13:30.860Z,0.00
2023-03-21T00:14:30.951Z,0.00
2023-03-21T00:15:42.525Z,0.00
2023-03-21T00:34:15.419Z,0.00
2023-03-21T00:34:27.072Z,0.00
2023-03-21T00:35:53.433Z,0.00
2023-03-21T00:36:20.518Z,0.00
2023-03-21T00:37:20.257Z,0.00
2023-03-21T00:38:20.486Z,0.00
2023-03-21T00:39:20.202Z,0.00
2023-03-21T00:40:29.172Z,0.00
2023-03-21T00:41:35.160Z,0.00
2023-03-21T00:42:20.222Z,0.00
2023-03-21T00:43:20.342Z,0.00
2023-03-21T00:44:20.164Z,0.00
2023-03-21T00:45:20.304Z,0.00
2023-03-21T00:46:21.723Z,0.00
2023-03-21T00:47:20.387Z,0.00
2023-03-21T00:48:20.185Z,0.00
2023-03-21T00:49:20.338Z,0.00
2023-03-21T00:50:20.095Z,0.00
2023-03-21T00:51:20.264Z,0.00
2023-03-21T00:52:27.569Z,0.00
2023-03-21T00:53:20.074Z,0.00
2023-03-21T00:54:20.354Z,0.00
2023-03-21T00:55:20.187Z,0.00
2023-03-21T00:56:20.038Z,0.00
2023-03-21T00:57:22.070Z,0.00
2023-03-21T00:58:20.037Z,0.00
2023-03-21T00:59:20.105Z,0.00
2023-03-21T01:00:20.106Z,0.00
2023-03-21T01:01:19.933Z,0.00
2023-03-21T01:02:20.180Z,0.00
2023-03-21T01:03:25.035Z,0.00
2023-03-21T01:04:19.955Z,0.00
2023-03-21T01:05:20.049Z,0.00
2023-03-21T01:06:19.895Z,0.00
2023-03-21T01:07:20.072Z,0.00
2023-03-21T01:08:26.845Z,0.00
2023-03-21T01:09:19.835Z,0.00
2023-03-21T01:10:19.935Z,0.00
2023-03-21T01:11:19.839Z,0.00
2023-03-21T01:12:19.906Z,0.00
2023-03-21T01:13:19.792Z,0.00
2023-03-21T01:14:23.077Z,0.00
2023-03-21T01:15:19.783Z,0.00
2023-03-21T01:16:19.982Z,0.00
2023-03-21T01:17:19.730Z,0.00
2023-03-21T01:18:19.944Z,0.00
2023-03-21T01:19:50.645Z,0.00
2023-03-21T01:20:19.749Z,0.00
2023-03-21T01:21:19.855Z,0.00
2023-03-21T01:22:19.687Z,0.00
2023-03-21T01:23:19.758Z,0.00
2023-03-21T01:24:19.662Z,0.00
2023-03-21T01:25:22.704Z,0.00
2023-03-21T01:26:19.652Z,0.00
2023-03-21T01:27:19.615Z,0.00
2023-03-21T01:28:19.809Z,0.00
2023-03-21T01:29:19.563Z,0.00
2023-03-21T01:30:23.885Z,0.00
2023-03-21T01:31:19.566Z,0.00
2023-03-21T01:32:19.668Z,0.00
2023-03-21T01:33:19.514Z,0.00
2023-03-21T01:34:19.647Z,0.00
2023-03-21T01:35:19.495Z,0.00
2023-03-21T01:36:22.671Z,0.00
2023-03-21T01:37:19.511Z,0.00
2023-03-21T01:38:19.573Z,0.00
2023-03-21T01:39:19.438Z,0.00
2023-03-21T01:40:19.596Z,0.00
2023-03-21T01:41:20.303Z,0.00
2023-03-21T01:42:19.546Z,0.00
2023-03-21T01:43:19.394Z,0.00
2023-03-21T01:44:19.488Z,0.00
2023-03-21T01:45:19.352Z,0.00
2023-03-21T01:46:19.458Z,0.00
2023-03-21T01:47:19.425Z,0.00
2023-03-21T01:48:19.419Z,0.00
2023-03-21T01:49:19.432Z,0.00
2023-03-21T01:50:19.320Z,0.00
2023-03-21T01:51:19.427Z,0.00
2023-03-21T01:52:33.335Z,0.00
2023-03-21T01:53:19.290Z,0.00
2023-03-21T01:54:19.485Z,0.00
2023-03-21T01:55:19.227Z,0.00
2023-03-21T01:56:19.287Z,0.00
2023-03-21T01:57:19.816Z,0.00
2023-03-21T01:58:19.306Z,0.00
2023-03-21T01:59:19.214Z,0.00
2023-03-21T02:00:19.315Z,0.00
2023-03-21T02:01:19.149Z,0.00
2023-03-21T02:02:19.352Z,0.00
2023-03-21T02:03:33.266Z,0.00
2023-03-21T02:04:19.170Z,0.00
2023-03-21T02:05:19.238Z,0.00
2023-03-21T02:06:19.108Z,0.00
2023-03-21T02:07:19.248Z,0.00
2023-03-21T02:08:19.882Z,0.00
2023-03-21T02:09:19.163Z,0.00
2023-03-21T02:10:19.063Z,0.00
2023-03-21T02:11:19.236Z,0.00
2023-03-21T02:12:19.033Z,0.00
2023-03-21T02:13:19.182Z,0.00
2023-03-21T02:14:28.205Z,0.00
2023-03-21T02:15:19.011Z,0.00
2023-03-21T02:16:19.158Z,0.00
2023-03-21T02:17:18.961Z,0.00
2023-03-21T02:18:19.139Z,0.00
2023-03-21T02:19:25.933Z,0.00
2023-03-21T02:20:18.959Z,0.00
2023-03-21T02:21:18.940Z,0.00
2023-03-21T02:22:18.909Z,0.00
2023-03-21T02:23:18.958Z,0.00
2023-03-21T02:24:18.924Z,0.00
2023-03-21T02:25:22.020Z,0.00
2023-03-21T02:26:18.836Z,0.00
2023-03-21T02:27:19.062Z,0.00
2023-03-21T02:28:18.824Z,0.00
2023-03-21T02:29:19.000Z,0.00
2023-03-21T02:30:28.108Z,0.00
2023-03-21T02:31:18.890Z,0.00
2023-03-21T02:32:31.413Z,0.00
2023-03-21T02:33:19.038Z,0.00
2023-03-21T02:34:18.920Z,0.00
2023-03-21T02:35:18.742Z,0.00
2023-03-21T02:36:18.865Z,0.00
2023-03-21T02:37:18.742Z,0.00
2023-03-21T02:38:18.755Z,0.00
2023-03-21T02:39:18.764Z,0.00
2023-03-21T02:40:18.650Z,0.00
2023-03-21T02:41:19.936Z,0.00
2023-03-21T02:42:18.634Z,0.00
2023-03-21T02:43:23.496Z,0.00
2023-03-21T02:44:18.809Z,0.00
2023-03-21T02:45:18.654Z,0.00
2023-03-21T02:46:18.765Z,0.00
2023-03-21T02:47:18.600Z,0.00
2023-03-21T02:48:27.702Z,0.00
2023-03-21T02:49:18.595Z,0.00
2023-03-21T02:50:18.628Z,0.00
2023-03-21T02:51:18.541Z,0.00
2023-03-21T02:52:31.896Z,0.00
2023-03-21T02:53:18.543Z,0.00
2023-03-21T02:54:38.300Z,0.00
2023-03-21T02:55:18.504Z,0.00
2023-03-21T02:56:18.587Z,0.00
2023-03-21T02:57:18.455Z,0.00
2023-03-21T02:58:18.490Z,0.00
2023-03-21T02:59:18.524Z,0.00
2023-03-21T03:00:18.500Z,0.00
2023-03-21T03:01:18.517Z,0.00
2023-03-21T03:02:18.504Z,0.00
2023-03-21T03:03:33.077Z,0.00
2023-03-21T03:04:18.378Z,0.00
2023-03-21T03:05:21.974Z,0.00
2023-03-21T03:06:18.342Z,0.00
2023-03-21T03:07:18.466Z,0.00
2023-03-21T03:08:18.297Z,0.00
2023-03-21T03:09:18.479Z,0.00
2023-03-21T03:10:18.515Z,0.00
2023-03-21T03:11:18.282Z,0.00
2023-03-21T03:12:18.381Z,0.00
2023-03-21T03:13:18.240Z,0.00
2023-03-21T03:14:39.976Z,0.00
2023-03-21T03:15:18.282Z,0.00
2023-03-21T03:16:18.475Z,0.00
2023-03-21T03:17:18.256Z,0.00
2023-03-21T03:18:18.215Z,0.00
2023-03-21T03:19:18.325Z,0.00
2023-03-21T03:20:18.349Z,0.00
2023-03-21T03:21:18.173Z,0.00
2023-03-21T03:22:18.352Z,0.00
2023-03-21T03:23:18.127Z,0.00
2023-03-21T03:24:18.259Z,0.00
2023-03-21T03:25:25.017Z,0.00
2023-03-21T03:26:18.065Z,0.00
2023-03-21T03:27:18.186Z,0.00
2023-03-21T03:28:18.062Z,0.00
2023-03-21T03:29:18.202Z,0.00
2023-03-21T03:30:18.010Z,0.00
2023-03-21T03:31:20.748Z,0.00
2023-03-21T03:32:17.975Z,0.00
2023-03-21T03:33:18.191Z,0.00
2023-03-21T03:34:17.967Z,0.00
2023-03-21T03:35:18.044Z,0.00
2023-03-21T03:36:30.895Z,0.00
2023-03-21T03:37:17.974Z,0.00
2023-03-21T03:38:18.147Z,0.00
2023-03-21T03:39:17.928Z,0.00
2023-03-21T03:40:18.048Z,0.00
2023-03-21T03:41:19.345Z,0.00
2023-03-21T03:42:27.965Z,0.00
2023-03-21T03:43:17.915Z,0.00
2023-03-21T03:44:18.035Z,0.00
2023-03-21T03:45:17.828Z,0.00
2023-03-21T03:46:18.045Z,0.00
2023-03-21T03:47:31.686Z,0.00
2023-03-21T03:48:18.407Z,0.00
2023-03-21T03:49:18.035Z,0.00
2023-03-21T03:50:17.744Z,0.00
2023-03-21T03:51:17.960Z,0.00
2023-03-21T03:52:17.725Z,0.00
2023-03-21T03:53:18.769Z,0.00
2023-03-21T03:54:17.749Z,0.00
2023-03-21T03:55:17.787Z,0.00
2023-03-21T03:56:17.679Z,0.00
2023-03-21T03:57:17.783Z,0.00
2023-03-21T03:58:23.588Z,0.00
2023-03-21T03:59:17.668Z,0.00
2023-03-21T04:00:17.834Z,0.00
2023-03-21T04:01:17.681Z,0.00
2023-03-21T04:02:17.932Z,0.00
2023-03-21T04:03:17.620Z,0.00
2023-03-21T04:04:17.775Z,0.00
2023-03-21T04:05:17.592Z,0.00
2023-03-21T04:06:17.689Z,0.00
2023-03-21T04:07:17.565Z,0.00
2023-03-21T04:08:17.753Z,0.00
2023-03-21T04:09:22.181Z,0.00
2023-03-21T04:10:17.513Z,0.00
2023-03-21T04:11:17.622Z,0.00
2023-03-21T04:12:17.495Z,0.00
2023-03-21T04:13:17.587Z,0.00
2023-03-21T04:14:17.453Z,0.00
2023-03-21T04:15:17.673Z,0.00
2023-03-21T04:16:17.453Z,0.00
2023-03-21T04:17:17.646Z,0.00
2023-03-21T04:18:17.412Z,0.00
2023-03-21T04:19:17.541Z,0.00
2023-03-21T04:20:26.664Z,0.00
2023-03-21T04:21:17.439Z,0.00
2023-03-21T04:22:17.545Z,0.00
2023-03-21T04:23:17.561Z,0.00
2023-03-21T04:24:17.331Z,0.00
2023-03-21T04:25:30.684Z,0.00
2023-03-21T04:26:17.343Z,0.00
2023-03-21T04:27:17.553Z,0.00
2023-03-21T04:28:17.274Z,0.00
2023-03-21T04:29:17.391Z,0.00
2023-03-21T04:30:17.243Z,0.00
2023-03-21T04:31:25.519Z,0.00
2023-03-21T04:32:17.354Z,0.00
2023-03-21T04:33:17.344Z,0.00
2023-03-21T04:34:17.199Z,0.00
2023-03-21T04:35:17.331Z,0.00
2023-03-21T04:36:17.193Z,0.00
2023-03-21T04:37:17.350Z,0.00
2023-03-21T04:38:17.186Z,0.00
2023-03-21T04:39:17.336Z,0.00
2023-03-21T04:40:17.118Z,0.00
2023-03-21T04:41:17.264Z,0.00
2023-03-21T04:42:17.087Z,0.00
2023-03-21T04:43:17.186Z,0.00
2023-03-21T04:44:17.230Z,0.00
2023-03-21T04:45:17.108Z,0.00
2023-03-21T04:46:17.337Z,0.00
2023-03-21T04:47:17.051Z,0.00
2023-03-21T04:48:17.155Z,0.00
2023-03-21T04:49:17.204Z,0.00
2023-03-21T04:50:17.017Z,0.00
2023-03-21T04:51:17.146Z,0.00
2023-03-21T04:52:16.975Z,0.00
2023-03-21T04:53:17.147Z,0.00
2023-03-21T04:54:18.816Z,0.00
2023-03-21T04:55:17.163Z,0.00
2023-03-21T04:56:16.973Z,0.00
2023-03-21T04:57:16.973Z,0.00
2023-03-21T04:58:16.915Z,0.00
2023-03-21T04:59:16.988Z,0.00
2023-03-21T05:00:16.907Z,0.00
2023-03-21T05:01:16.929Z,0.00
2023-03-21T05:02:16.865Z,4.00
2023-03-21T05:03:17.005Z,0.00
2023-03-21T05:04:16.860Z,0.00
2023-03-21T05:05:17.077Z,4.00
2023-03-21T05:06:16.824Z,0.00
2023-03-21T05:07:16.884Z,4.00
2023-03-21T05:08:16.789Z,0.00
2023-03-21T05:09:16.849Z,4.00
2023-03-21T05:10:16.862Z,4.00
2023-03-21T05:11:16.737Z,8.00
2023-03-21T05:12:16.882Z,8.00
2023-03-21T05:13:16.698Z,8.00
2023-03-21T05:14:16.792Z,12.00
2023-03-21T05:15:16.781Z,12.00
2023-03-21T05:16:16.739Z,16.00
2023-03-21T05:17:16.845Z,20.00
2023-03-21T05:18:16.663Z,20.00
2023-03-21T05:19:16.808Z,24.00
2023-03-21T05:20:16.637Z,28.00
2023-03-21T05:21:16.828Z,28.00
2023-03-21T05:22:16.660Z,28.00
2023-03-21T05:23:16.747Z,36.00
2023-03-21T05:24:16.592Z,36.00
2023-03-21T05:25:16.651Z,40.00
2023-03-21T05:26:16.551Z,44.00
2023-03-21T05:27:16.664Z,48.00
2023-03-21T05:28:16.540Z,52.00
2023-03-21T05:29:16.668Z,56.00
2023-03-21T05:30:16.510Z,60.00
2023-03-21T05:31:16.623Z,64.00
2023-03-21T05:32:16.528Z,68.00
2023-03-21T05:33:16.640Z,72.00
2023-03-21T05:34:16.436Z,80.00
2023-03-21T05:35:16.623Z,84.00
2023-03-21T05:36:16.703Z,92.00
2023-03-21T05:37:22.537Z,96.00
2023-03-21T05:38:16.510Z,104.00
2023-03-21T05:39:16.403Z,108.00
2023-03-21T05:40:16.462Z,112.00
2023-03-21T05:41:18.146Z,120.00
2023-03-21T05:42:16.339Z,128.00
2023-03-21T05:43:16.517Z,132.00
2023-03-21T05:44:16.338Z,140.00
2023-03-21T05:45:16.424Z,148.00
2023-03-21T05:46:16.336Z,152.00
2023-03-21T05:47:16.419Z,164.00
2023-03-21T05:48:16.327Z,172.00
2023-03-21T05:49:16.414Z,180.00
2023-03-21T05:50:16.257Z,188.00
2023-03-21T05:51:16.426Z,196.00
2023-03-21T05:52:16.220Z,204.00
2023-03-21T05:53:16.429Z,212.00
2023-03-21T05:54:16.240Z,224.00
2023-03-21T05:55:16.255Z,232.00
2023-03-21T05:56:16.177Z,248.00
2023-03-21T05:57:16.283Z,264.00
2023-03-21T05:58:16.149Z,292.00
2023-03-21T05:59:16.317Z,320.00
2023-03-21T06:00:16.123Z,352.00
2023-03-21T06:01:16.250Z,388.00
2023-03-21T06:02:16.267Z,420.00
2023-03-21T06:03:16.065Z,444.00
2023-03-21T06:04:16.482Z,468.00
2023-03-21T06:05:16.053Z,484.00
2023-03-21T06:06:16.149Z,500.00
2023-03-21T06:07:16.139Z,516.00
2023-03-21T06:08:16.036Z,528.00
2023-03-21T06:09:16.182Z,544.00
2023-03-21T06:10:16.033Z,564.00
2023-03-21T06:11:16.077Z,592.00
2023-03-21T06:12:16.007Z,620.00
2023-03-21T06:13:16.083Z,660.00
2023-03-21T06:14:15.949Z,692.00
2023-03-21T06:15:16.158Z,696.00
2023-03-21T06:16:15.986Z,692.00
2023-03-21T06:17:16.015Z,696.00
2023-03-21T06:18:15.896Z,792.00
2023-03-21T06:19:16.024Z,844.00
2023-03-21T06:20:15.888Z,924.00
2023-03-21T06:21:15.981Z,1008.00
2023-03-21T06:22:15.875Z,1040.00
2023-03-21T06:23:15.991Z,1052.00
2023-03-21T06:24:15.810Z,1048.00
2023-03-21T06:25:15.967Z,1056.00
2023-03-21T06:26:15.818Z,1072.00
2023-03-21T06:27:15.966Z,1128.00
2023-03-21T06:28:16.043Z,1156.00
2023-03-21T06:29:15.737Z,1172.00
2023-03-21T06:30:16.000Z,1188.00
2023-03-21T06:31:15.741Z,1184.00
2023-03-21T06:32:15.935Z,1180.00
2023-03-21T06:33:15.857Z,1172.00
2023-03-21T06:34:15.761Z,1160.00
2023-03-21T06:35:15.821Z,1140.00
2023-03-21T06:36:15.716Z,1120.00
2023-03-21T06:37:15.782Z,1124.00
2023-03-21T06:38:15.805Z,1128.00
2023-03-21T06:39:15.653Z,1120.00
2023-03-21T06:40:15.761Z,1104.00
2023-03-21T06:41:15.611Z,1100.00
2023-03-21T06:42:15.653Z,1084.00
2023-03-21T06:43:15.603Z,1100.00
2023-03-21T06:44:15.675Z,1068.00
2023-03-21T06:45:15.558Z,1036.00
2023-03-21T06:46:15.911Z,1040.00
2023-03-21T06:47:15.568Z,1104.00
2023-03-21T06:48:15.757Z,1140.00
2023-03-21T06:49:15.500Z,1212.00
2023-03-21T06:50:15.611Z,1204.00
2023-03-21T06:51:15.542Z,1188.00
2023-03-21T06:52:15.519Z,1192.00
2023-03-21T06:53:15.484Z,1196.00
2023-03-21T06:54:15.591Z,1224.00
2023-03-21T06:55:15.425Z,1264.00
2023-03-21T06:56:15.538Z,1244.00
2023-03-21T06:57:15.417Z,1256.00
2023-03-21T06:58:15.468Z,1248.00
2023-03-21T06:59:15.548Z,1248.00
2023-03-21T07:00:15.386Z,1236.00
2023-03-21T07:01:15.560Z,1264.00
2023-03-21T07:02:15.423Z,1260.00
2023-03-21T07:03:15.512Z,1248.00
2023-03-21T07:04:15.416Z,1244.00
2023-03-21T07:05:15.294Z,1236.00
2023-03-21T07:06:15.487Z,1228.00
2023-03-21T07:07:15.260Z,1232.00
2023-03-21T07:08:15.373Z,1260.00
2023-03-21T07:09:15.244Z,1288.00
2023-03-21T07:10:15.345Z,1308.00
2023-03-21T07:11:15.235Z,1328.00
2023-03-21T07:12:15.455Z,1328.00
2023-03-21T07:13:15.197Z,1320.00
2023-03-21T07:14:15.282Z,1312.00
2023-03-21T07:15:15.158Z,1336.00
2023-03-21T07:16:15.384Z,1392.00
2023-03-21T07:17:15.178Z,1404.00
2023-03-21T07:18:15.219Z,1396.00
2023-03-21T07:19:15.100Z,1392.00
2023-03-21T07:20:15.360Z,1404.00
2023-03-21T07:21:15.098Z,1396.00
2023-03-21T07:22:15.129Z,1420.00
2023-03-21T07:23:15.059Z,1444.00
2023-03-21T07:24:15.131Z,1460.00
2023-03-21T07:25:15.115Z,1448.00
2023-03-21T07:26:15.153Z,1504.00
2023-03-21T07:27:15.004Z,1528.00
2023-03-21T07:28:15.067Z,1532.00
2023-03-21T07:29:14.981Z,1476.00
2023-03-21T07:30:15.235Z,1548.00
2023-03-21T07:31:15.054Z,1564.00
2023-03-21T07:32:15.176Z,1584.00
2023-03-21T07:33:14.940Z,1580.00
2023-03-21T07:34:15.013Z,1592.00
2023-03-21T07:35:15.033Z,1600.00
2023-03-21T07:36:14.918Z,1596.00
2023-03-21T07:37:15.118Z,1640.00
2023-03-21T07:38:14.881Z,1656.00
2023-03-21T07:39:15.058Z,1676.00
2023-03-21T07:40:15.114Z,1688.00
2023-03-21T07:42:15.115Z,1700.00
2023-03-21T07:43:14.819Z,1752.00
2023-03-21T07:44:14.971Z,1768.00
2023-03-21T07:45:15.026Z,1808.00
2023-03-21T07:46:14.935Z,1828.00
2023-03-21T07:47:14.759Z,1852.00
2023-03-21T07:48:15.045Z,1904.00
2023-03-21T07:49:14.725Z,1928.00
2023-03-21T07:50:14.906Z,1964.00
2023-03-21T07:51:14.713Z,1936.00
2023-03-21T07:52:14.966Z,1916.00
2023-03-21T07:53:14.684Z,2072.00
2023-03-21T07:54:14.853Z,2116.00
2023-03-21T07:55:14.650Z,2156.00
2023-03-21T07:56:14.748Z,2088.00
2023-03-21T07:57:14.616Z,2224.00
2023-03-21T07:58:14.912Z,2260.00
2023-03-21T07:59:14.604Z,2296.00
2023-03-21T08:00:14.774Z,2332.00
2023-03-21T08:01:14.581Z,2348.00
2023-03-21T08:02:14.784Z,2384.00
2023-03-21T08:03:14.598Z,2404.00
2023-03-21T08:04:14.628Z,2400.00
2023-03-21T08:05:14.534Z,2400.00
2023-03-21T08:06:14.621Z,2484.00
2023-03-21T08:07:14.509Z,2604.00
2023-03-21T08:08:14.645Z,2644.00
2023-03-21T08:09:14.473Z,2704.00
2023-03-21T08:10:14.590Z,2800.00
2023-03-21T08:11:14.449Z,2888.00
2023-03-21T08:12:14.562Z,2956.00
2023-03-21T08:13:14.417Z,2988.00
2023-03-21T08:14:14.559Z,3064.00
2023-03-21T08:15:14.422Z,3160.00
2023-03-21T08:16:14.478Z,3096.00
2023-03-21T08:17:14.376Z,3136.00
2023-03-21T08:18:14.518Z,3188.00
2023-03-21T08:19:14.417Z,3036.00
2023-03-21T08:20:14.454Z,3016.00
2023-03-21T08:21:14.313Z,3136.00
2023-03-21T08:22:14.423Z,2764.00
2023-03-21T08:23:14.303Z,2660.00
2023-03-21T08:24:14.429Z,2720.00
2023-03-21T08:25:14.301Z,2580.00
2023-03-21T08:26:14.393Z,2508.00
2023-03-21T08:27:14.234Z,2504.00
2023-03-21T08:28:14.360Z,2580.00
2023-03-21T08:29:14.199Z,2552.00
2023-03-21T08:30:14.276Z,2672.00
2023-03-21T08:31:14.271Z,2656.00
2023-03-21T08:32:14.292Z,2680.00
2023-03-21T08:33:14.181Z,2864.00
2023-03-21T08:34:14.317Z,3112.00
2023-03-21T08:35:14.146Z,3076.00
2023-03-21T08:36:14.309Z,3312.00
2023-03-21T08:37:14.224Z,3332.00
2023-03-21T08:38:14.078Z,3284.00
2023-03-21T08:39:14.254Z,3268.00
2023-03-21T08:40:14.057Z,3176.00
2023-03-21T08:41:14.232Z,3164.00
2023-03-21T08:42:14.029Z,3144.00
2023-03-21T08:43:14.952Z,3200.00
2023-03-21T08:44:14.924Z,3236.00
2023-03-21T08:45:14.275Z,3228.00
2023-03-21T08:46:14.030Z,3184.00
2023-03-21T08:47:14.152Z,2976.00
2023-03-21T08:48:13.972Z,2772.00
2023-03-21T08:49:14.128Z,2704.00
2023-03-21T08:50:14.269Z,2956.00
2023-03-21T08:51:14.101Z,3228.00
2023-03-21T08:52:13.962Z,3320.00
2023-03-21T08:53:14.032Z,3324.00
2023-03-21T08:54:13.868Z,3276.00
2023-03-21T08:55:14.061Z,3380.00
2023-03-21T08:56:13.849Z,3456.00
2023-03-21T08:57:14.130Z,3476.00
2023-03-21T08:58:13.798Z,3532.00
2023-03-21T08:59:14.006Z,3584.00
2023-03-21T09:00:13.784Z,3632.00
2023-03-21T09:01:14.079Z,3672.00
2023-03-21T09:02:13.808Z,3764.00
2023-03-21T09:03:13.924Z,3880.00
2023-03-21T09:04:13.809Z,3996.00
2023-03-21T09:05:13.950Z,4156.00
2023-03-21T09:06:13.707Z,4316.00
2023-03-21T09:07:13.909Z,4376.00
2023-03-21T09:08:13.880Z,4536.00
2023-03-21T09:09:13.693Z,4680.00
2023-03-21T09:10:22.310Z,4836.00
2023-03-21T09:11:13.680Z,4980.00
2023-03-21T09:12:13.846Z,5112.00
2023-03-21T09:13:13.660Z,5092.00
2023-03-21T09:14:13.868Z,5312.00
2023-03-21T09:15:13.633Z,5428.00
2023-03-21T09:16:13.816Z,5556.00
2023-03-21T09:17:13.620Z,5672.00
2023-03-21T09:18:13.842Z,5828.00
2023-03-21T09:19:13.557Z,5968.00
2023-03-21T09:20:13.715Z,6016.00
2023-03-21T09:21:13.552Z,6048.00
2023-03-21T09:22:13.626Z,6180.00
2023-03-21T09:23:13.563Z,6216.00
2023-03-21T09:24:13.691Z,6312.00
2023-03-21T09:25:13.488Z,6252.00
2023-03-21T09:26:13.801Z,6160.00
2023-03-21T09:27:13.472Z,6180.00
2023-03-21T09:28:13.617Z,6220.00
2023-03-21T09:29:13.644Z,6268.00
2023-03-21T09:30:13.448Z,6364.00
2023-03-21T09:31:13.660Z,6464.00
2023-03-21T09:32:13.382Z,6548.00
2023-03-21T09:33:13.510Z,6692.00
2023-03-21T09:34:13.507Z,6880.00
2023-03-21T09:35:13.373Z,6972.00
2023-03-21T09:36:13.659Z,6976.00
2023-03-21T09:37:13.359Z,6980.00
2023-03-21T09:38:13.533Z,7112.00
2023-03-21T09:39:13.549Z,7288.00
2023-03-21T09:40:13.263Z,7472.00
2023-03-21T09:41:13.518Z,7476.00
2023-03-21T09:42:15.256Z,7792.00
2023-03-21T09:43:13.381Z,7892.00
2023-03-21T09:44:13.222Z,7996.00
2023-03-21T09:45:14.528Z,7968.00
2023-03-21T09:46:13.336Z,8276.00
2023-03-21T09:47:13.512Z,8508.00
2023-03-21T09:48:15.252Z,8756.00
2023-03-21T09:49:13.439Z,9056.00
2023-03-21T09:50:15.278Z,9364.00
2023-03-21T09:51:13.332Z,9600.00
2023-03-21T09:52:13.136Z,10384.00
2023-03-21T09:53:13.410Z,10908.00
2023-03-21T09:54:13.099Z,11132.00
2023-03-21T09:55:13.261Z,11460.00
2023-03-21T09:56:13.057Z,12444.00
2023-03-21T09:57:13.270Z,13712.00
2023-03-21T09:58:13.097Z,16416.00
2023-03-21T09:59:13.200Z,31872.00
2023-03-21T10:00:13.056Z,51552.00
2023-03-21T10:01:13.232Z,52864.00
2023-03-21T10:02:12.997Z,58144.00
2023-03-21T10:03:13.382Z,56128.00
2023-03-21T10:04:13.074Z,57760.00
2023-03-21T10:05:13.152Z,53248.00
2023-03-21T10:06:12.974Z,52000.00
2023-03-21T10:07:13.139Z,49728.00
2023-03-21T10:08:12.939Z,50080.00
2023-03-21T10:09:13.214Z,51264.00
2023-03-21T10:10:12.958Z,54784.00
2023-03-21T10:11:13.202Z,47520.00
2023-03-21T10:12:12.857Z,40800.00
2023-03-21T10:13:13.211Z,45984.00
2023-03-21T10:14:12.895Z,48192.00
2023-03-21T10:15:12.985Z,51168.00
2023-03-21T10:16:12.854Z,48992.00
2023-03-21T10:17:13.000Z,48480.00
2023-03-21T10:18:12.761Z,49920.00
2023-03-21T10:19:12.911Z,51712.00
2023-03-21T10:20:12.794Z,53184.00
2023-03-21T10:21:13.029Z,51136.00
2023-03-21T10:22:12.769Z,47680.00
2023-03-21T10:23:12.963Z,46496.00
2023-03-21T10:24:12.715Z,46432.00
2023-03-21T10:25:12.857Z,44608.00
2023-03-21T10:26:14.883Z,43712.00
2023-03-21T10:27:12.864Z,31296.00
2023-03-21T10:28:12.667Z,41120.00
2023-03-21T10:29:12.905Z,39968.00
2023-03-21T10:30:12.614Z,39200.00
2023-03-21T10:31:12.955Z,36928.00
2023-03-21T10:32:12.593Z,32736.00
2023-03-21T10:33:12.979Z,31424.00
2023-03-21T10:34:12.604Z,32480.00
2023-03-21T10:35:12.721Z,31936.00
2023-03-21T10:36:12.701Z,33344.00
2023-03-21T10:37:12.743Z,30816.00
2023-03-21T10:38:12.593Z,30880.00
2023-03-21T10:39:12.843Z,28096.00
2023-03-21T10:40:12.540Z,26048.00
2023-03-21T10:41:12.661Z,25504.00
2023-03-21T10:42:12.486Z,23040.00
2023-03-21T10:43:12.812Z,22304.00
2023-03-21T10:44:12.438Z,20800.00
2023-03-21T10:45:12.566Z,19392.00
2023-03-21T10:46:12.804Z,18240.00
2023-03-21T10:47:12.754Z,18496.00
2023-03-21T10:48:12.710Z,19808.00
2023-03-21T10:49:12.475Z,21248.00
2023-03-21T10:50:12.553Z,22528.00
2023-03-21T10:51:12.509Z,22080.00
2023-03-21T10:52:12.342Z,21312.00
2023-03-21T10:53:12.545Z,19488.00
2023-03-21T10:54:12.360Z,18976.00
2023-03-21T10:55:12.431Z,18080.00
2023-03-21T10:56:12.494Z,15432.00
2023-03-21T10:57:12.337Z,15808.00
2023-03-21T10:58:12.455Z,12720.00
2023-03-21T10:59:12.260Z,12064.00
2023-03-21T11:00:12.471Z,12128.00
2023-03-21T11:01:12.253Z,11792.00
2023-03-21T11:02:12.319Z,10524.00
2023-03-21T11:03:12.229Z,10172.00
2023-03-21T11:04:12.406Z,10228.00
2023-03-21T11:05:12.182Z,9744.00
2023-03-21T11:06:12.219Z,9572.00
2023-03-21T11:07:12.163Z,9000.00
2023-03-21T11:08:12.271Z,8176.00
2023-03-21T11:09:12.148Z,7324.00
2023-03-21T11:10:14.590Z,6944.00
2023-03-21T11:11:12.105Z,6752.00
2023-03-21T11:12:12.176Z,6516.00
2023-03-21T11:13:12.068Z,6464.00
2023-03-21T11:14:12.225Z,6112.00
2023-03-21T11:15:12.052Z,5988.00
2023-03-21T11:16:12.259Z,5732.00
2023-03-21T11:17:12.163Z,5404.00
2023-03-21T11:18:12.077Z,5208.00
2023-03-21T11:19:12.141Z,5268.00
2023-03-21T11:20:12.014Z,5300.00
2023-03-21T11:21:12.099Z,5260.00
2023-03-21T11:22:12.021Z,5296.00
2023-03-21T11:23:11.960Z,5308.00
2023-03-21T11:24:12.176Z,5332.00
2023-03-21T11:25:11.982Z,5192.00
2023-03-21T11:26:12.069Z,5096.00
2023-03-21T11:27:11.936Z,5080.00
2023-03-21T11:28:11.909Z,4904.00
2023-03-21T11:29:11.985Z,4760.00
2023-03-21T11:30:11.874Z,4508.00
2023-03-21T11:31:11.938Z,4236.00
2023-03-21T11:32:11.951Z,4008.00
2023-03-21T11:33:11.839Z,3844.00
2023-03-21T11:34:11.885Z,3772.00
2023-03-21T11:35:11.842Z,2184.00
2023-03-21T11:36:11.964Z,836.00
2023-03-21T11:37:11.808Z,4372.00
2023-03-21T11:38:11.830Z,4204.00
2023-03-21T11:39:11.739Z,4108.00
2023-03-21T11:40:11.879Z,4012.00
2023-03-21T11:41:11.729Z,3980.00
2023-03-21T11:42:11.854Z,3924.00
2023-03-21T11:43:11.685Z,3872.00
2023-03-21T11:44:11.762Z,3804.00
2023-03-21T11:45:11.662Z,3740.00
2023-03-21T11:46:11.850Z,3708.00
2023-03-21T11:47:11.640Z,3680.00
2023-03-21T11:48:11.755Z,3664.00
2023-03-21T11:49:11.617Z,3636.00
2023-03-21T11:50:11.692Z,3596.00
2023-03-21T11:51:11.625Z,3552.00
2023-03-21T11:52:11.681Z,3508.00
2023-03-21T11:53:11.616Z,3476.00
2023-03-21T11:54:11.617Z,3436.00
2023-03-21T11:55:11.734Z,3404.00
2023-03-21T11:56:11.548Z,3372.00
2023-03-21T11:57:11.579Z,3336.00
2023-03-21T11:58:14.536Z,3300.00
2023-03-21T11:59:11.559Z,3284.00
2023-03-21T12:00:11.558Z,3280.00
2023-03-21T12:01:11.457Z,3280.00
2023-03-21T12:02:11.667Z,3300.00
2023-03-21T12:03:11.429Z,3332.00
2023-03-21T12:04:11.512Z,3372.00
2023-03-21T12:05:11.391Z,3396.00
2023-03-21T12:06:11.620Z,3412.00
2023-03-21T12:07:11.416Z,3408.00
2023-03-21T12:08:11.513Z,3384.00
2023-03-21T12:09:11.357Z,3364.00
2023-03-21T12:10:11.526Z,3360.00
2023-03-21T12:11:11.329Z,3348.00
2023-03-21T12:12:11.548Z,3316.00
2023-03-21T12:13:11.338Z,3268.00
2023-03-21T12:14:11.349Z,3216.00
2023-03-21T12:15:11.265Z,3136.00
2023-03-21T12:16:11.502Z,3056.00
2023-03-21T12:17:11.260Z,2976.00
2023-03-21T12:18:11.334Z,2924.00
2023-03-21T12:19:11.373Z,2904.00
2023-03-21T12:20:11.256Z,2916.00
2023-03-21T12:21:11.289Z,2976.00
2023-03-21T12:22:11.205Z,3056.00
2023-03-21T12:23:11.326Z,3180.00
2023-03-21T12:24:11.185Z,3332.00
2023-03-21T12:25:11.214Z,3476.00
2023-03-21T12:26:11.170Z,3604.00
2023-03-21T12:27:11.234Z,3736.00
2023-03-21T12:28:11.224Z,3848.00
2023-03-21T12:29:11.174Z,3936.00
2023-03-21T12:30:11.133Z,3980.00
2023-03-21T12:31:11.211Z,3980.00
2023-03-21T12:32:11.086Z,3944.00
2023-03-21T12:33:11.171Z,3876.00
2023-03-21T12:34:11.076Z,3792.00
2023-03-21T12:35:11.072Z,3684.00
2023-03-21T12:36:11.150Z,3580.00
2023-03-21T12:37:11.180Z,3504.00
2023-03-21T12:38:11.020Z,3460.00
2023-03-21T12:39:11.060Z,3432.00
2023-03-21T12:40:11.087Z,3444.00
2023-03-21T12:41:10.952Z,3504.00
2023-03-21T12:42:11.037Z,3624.00
2023-03-21T12:43:10.906Z,3784.00
2023-03-21T12:44:11.122Z,3948.00
2023-03-21T12:45:15.322Z,4120.00
2023-03-21T12:46:11.951Z,4260.00
2023-03-21T12:47:11.136Z,4432.00
2023-03-21T12:48:10.929Z,4624.00
2023-03-21T12:49:10.915Z,4836.00
2023-03-21T12:50:10.888Z,4964.00
2023-03-21T12:51:10.888Z,5156.00